Deep River, Iowa
Current Conditions -  °F | °C
As of 2:35 PM on Thursday 20 Nov 2014 (Local Time) from KGGI Reporting Station
Clear Clear  
Wind Chill: 14°   Ceiling: Unl
Heat Index: 26°   Visibility: 10mi
Dew Point: 13°   Wind: 15mph
Humidity: 58%   Direction: 310°NW
Pressure: 30.19"   Gusts: NA
Location:  41.58°N, 92.37°W
Report Text: KGGI 202035Z AUTO 31013KT 10SM CLR M03/M10 A3019 RMK AO2 T10321104
Loading
Personal Weather Stations






























Interactive Weather Map New forecast layout! Learn more

10-Day Weather Forecast

Advertisements
Track Severe Weather on mobile